sensor_id;sensor_type;location;lat;lon;timestamp;P1;durP1;ratioP1;P2;durP2;ratioP2
7495;SDS011;3789;47.064;15.482;2024-01-27T00:01:20;3.07;;;1.10;;
7495;SDS011;3789;47.064;15.482;2024-01-27T00:03:48;1.07;;;1.00;;
7495;SDS011;3789;47.064;15.482;2024-01-27T00:06:17;2.40;;;1.20;;
7495;SDS011;3789;47.064;15.482;2024-01-27T00:08:44;1.00;;;1.00;;
7495;SDS011;3789;47.064;15.482;2024-01-27T00:11:12;0.93;;;0.93;;
7495;SDS011;3789;47.064;15.482;2024-01-27T00:13:40;1.30;;;1.20;;
7495;SDS011;3789;47.064;15.482;2024-01-27T00:16:08;1.10;;;1.07;;
7495;SDS011;3789;47.064;15.482;2024-01-27T00:18:36;1.13;;;1.00;;
7495;SDS011;3789;47.064;15.482;2024-01-27T00:21:05;1.47;;;1.10;;
7495;SDS011;3789;47.064;15.482;2024-01-27T00:23:33;1.23;;;1.00;;
7495;SDS011;3789;47.064;15.482;2024-01-27T00:26:04;1.10;;;1.00;;
7495;SDS011;3789;47.064;15.482;2024-01-27T00:28:31;1.13;;;1.03;;
7495;SDS011;3789;47.064;15.482;2024-01-27T00:30:59;1.30;;;1.20;;
7495;SDS011;3789;47.064;15.482;2024-01-27T00:33:26;0.90;;;0.90;;
7495;SDS011;3789;47.064;15.482;2024-01-27T00:35:54;1.20;;;0.90;;
7495;SDS011;3789;47.064;15.482;2024-01-27T00:38:21;1.03;;;1.03;;
7495;SDS011;3789;47.064;15.482;2024-01-27T00:40:49;1.30;;;1.10;;
7495;SDS011;3789;47.064;15.482;2024-01-27T00:43:16;1.10;;;1.00;;
7495;SDS011;3789;47.064;15.482;2024-01-27T00:45:43;1.43;;;1.10;;
7495;SDS011;3789;47.064;15.482;2024-01-27T00:48:11;1.30;;;1.10;;
7495;SDS011;3789;47.064;15.482;2024-01-27T00:50:38;0.90;;;0.90;;
7495;SDS011;3789;47.064;15.482;2024-01-27T00:53:06;1.30;;;1.20;;
7495;SDS011;3789;47.064;15.482;2024-01-27T00:55:33;0.90;;;0.90;;
7495;SDS011;3789;47.064;15.482;2024-01-27T00:58:02;1.20;;;1.10;;
7495;SDS011;3789;47.064;15.482;2024-01-27T01:00:29;1.13;;;1.00;;
7495;SDS011;3789;47.064;15.482;2024-01-27T01:02:57;1.13;;;1.03;;
7495;SDS011;3789;47.064;15.482;2024-01-27T01:08:51;1.00;;;1.00;;
7495;SDS011;3789;47.064;15.482;2024-01-27T01:11:18;1.40;;;1.20;;
7495;SDS011;3789;47.064;15.482;2024-01-27T01:13:46;1.10;;;0.93;;
7495;SDS011;3789;47.064;15.482;2024-01-27T01:16:13;1.20;;;1.10;;
7495;SDS011;3789;47.064;15.482;2024-01-27T01:18:41;1.20;;;1.00;;
7495;SDS011;3789;47.064;15.482;2024-01-27T01:21:09;1.20;;;1.10;;
7495;SDS011;3789;47.064;15.482;2024-01-27T01:23:36;1.30;;;1.07;;
7495;SDS011;3789;47.064;15.482;2024-01-27T01:26:04;1.17;;;1.07;;
7495;SDS011;3789;47.064;15.482;2024-01-27T01:28:31;1.27;;;1.10;;
7495;SDS011;3789;47.064;15.482;2024-01-27T01:30:59;1.00;;;1.00;;
7495;SDS011;3789;47.064;15.482;2024-01-27T01:33:26;1.30;;;1.00;;
7495;SDS011;3789;47.064;15.482;2024-01-27T01:35:54;0.90;;;0.90;;
7495;SDS011;3789;47.064;15.482;2024-01-27T01:38:21;0.90;;;0.90;;
7495;SDS011;3789;47.064;15.482;2024-01-27T01:40:49;1.07;;;1.00;;
7495;SDS011;3789;47.064;15.482;2024-01-27T01:43:16;0.90;;;0.90;;
7495;SDS011;3789;47.064;15.482;2024-01-27T01:45:44;2.00;;;1.07;;
7495;SDS011;3789;47.064;15.482;2024-01-27T01:48:12;1.00;;;1.00;;
7495;SDS011;3789;47.064;15.482;2024-01-27T01:50:39;0.90;;;0.90;;
7495;SDS011;3789;47.064;15.482;2024-01-27T01:53:07;1.27;;;1.10;;
7495;SDS011;3789;47.064;15.482;2024-01-27T01:55:36;1.10;;;0.90;;
7495;SDS011;3789;47.064;15.482;2024-01-27T01:58:04;1.07;;;1.07;;
7495;SDS011;3789;47.064;15.482;2024-01-27T02:00:33;0.90;;;0.90;;
7495;SDS011;3789;47.064;15.482;2024-01-27T02:03:00;1.70;;;1.00;;
7495;SDS011;3789;47.064;15.482;2024-01-27T02:05:28;1.17;;;1.13;;
7495;SDS011;3789;47.064;15.482;2024-01-27T02:07:55;1.20;;;1.10;;
7495;SDS011;3789;47.064;15.482;2024-01-27T02:10:26;1.50;;;1.10;;
7495;SDS011;3789;47.064;15.482;2024-01-27T02:12:54;1.00;;;1.00;;
7495;SDS011;3789;47.064;15.482;2024-01-27T02:15:21;1.30;;;1.20;;
7495;SDS011;3789;47.064;15.482;2024-01-27T02:17:48;0.90;;;0.90;;
7495;SDS011;3789;47.064;15.482;2024-01-27T02:20:16;0.90;;;0.90;;
7495;SDS011;3789;47.064;15.482;2024-01-27T02:22:44;1.70;;;1.00;;
7495;SDS011;3789;47.064;15.482;2024-01-27T02:25:11;1.63;;;1.10;;
7495;SDS011;3789;47.064;15.482;2024-01-27T02:27:39;0.97;;;0.93;;
7495;SDS011;3789;47.064;15.482;2024-01-27T02:30:06;0.80;;;0.80;;
7495;SDS011;3789;47.064;15.482;2024-01-27T02:32:34;1.03;;;0.93;;
7495;SDS011;3789;47.064;15.482;2024-01-27T02:35:02;2.10;;;1.07;;
7495;SDS011;3789;47.064;15.482;2024-01-27T02:37:29;1.77;;;1.00;;
7495;SDS011;3789;47.064;15.482;2024-01-27T02:39:57;1.10;;;1.10;;
7495;SDS011;3789;47.064;15.482;2024-01-27T02:42:24;1.90;;;1.10;;
7495;SDS011;3789;47.064;15.482;2024-01-27T02:44:52;1.30;;;1.10;;
7495;SDS011;3789;47.064;15.482;2024-01-27T02:47:19;1.13;;;0.90;;
7495;SDS011;3789;47.064;15.482;2024-01-27T02:49:46;1.07;;;1.03;;
7495;SDS011;3789;47.064;15.482;2024-01-27T02:52:14;1.00;;;1.00;;
7495;SDS011;3789;47.064;15.482;2024-01-27T02:54:41;1.00;;;1.00;;
7495;SDS011;3789;47.064;15.482;2024-01-27T02:57:09;1.70;;;1.07;;
7495;SDS011;3789;47.064;15.482;2024-01-27T02:59:37;1.53;;;1.27;;
7495;SDS011;3789;47.064;15.482;2024-01-27T03:02:05;1.20;;;1.10;;
7495;SDS011;3789;47.064;15.482;2024-01-27T03:04:33;1.37;;;1.10;;
7495;SDS011;3789;47.064;15.482;2024-01-27T03:07:00;1.17;;;1.07;;
7495;SDS011;3789;47.064;15.482;2024-01-27T03:09:28;1.10;;;1.10;;
7495;SDS011;3789;47.064;15.482;2024-01-27T03:11:55;1.20;;;1.10;;
7495;SDS011;3789;47.064;15.482;2024-01-27T03:14:23;1.33;;;1.10;;
7495;SDS011;3789;47.064;15.482;2024-01-27T03:16:51;1.20;;;1.00;;
7495;SDS011;3789;47.064;15.482;2024-01-27T03:19:18;1.07;;;1.07;;
7495;SDS011;3789;47.064;15.482;2024-01-27T03:21:45;1.33;;;1.10;;
7495;SDS011;3789;47.064;15.482;2024-01-27T03:24:13;1.40;;;1.10;;
7495;SDS011;3789;47.064;15.482;2024-01-27T03:26:40;1.30;;;1.20;;
7495;SDS011;3789;47.064;15.482;2024-01-27T03:29:08;1.00;;;1.00;;
7495;SDS011;3789;47.064;15.482;2024-01-27T03:31:35;2.60;;;1.10;;
7495;SDS011;3789;47.064;15.482;2024-01-27T03:34:02;1.30;;;1.20;;
7495;SDS011;3789;47.064;15.482;2024-01-27T03:36:30;1.20;;;1.20;;
7495;SDS011;3789;47.064;15.482;2024-01-27T03:38:58;0.90;;;0.90;;
7495;SDS011;3789;47.064;15.482;2024-01-27T03:41:27;1.63;;;1.20;;
7495;SDS011;3789;47.064;15.482;2024-01-27T03:43:54;3.03;;;1.00;;
7495;SDS011;3789;47.064;15.482;2024-01-27T03:46:22;1.00;;;1.00;;
7495;SDS011;3789;47.064;15.482;2024-01-27T03:48:49;2.60;;;1.53;;
7495;SDS011;3789;47.064;15.482;2024-01-27T03:51:16;2.33;;;1.50;;
7495;SDS011;3789;47.064;15.482;2024-01-27T03:53:44;4.27;;;1.67;;
7495;SDS011;3789;47.064;15.482;2024-01-27T03:56:12;1.20;;;1.10;;
7495;SDS011;3789;47.064;15.482;2024-01-27T03:58:40;3.13;;;1.40;;
7495;SDS011;3789;47.064;15.482;2024-01-27T04:01:07;4.50;;;2.03;;
7495;SDS011;3789;47.064;15.482;2024-01-27T04:03:35;1.40;;;1.30;;
7495;SDS011;3789;47.064;15.482;2024-01-27T04:06:02;2.07;;;1.50;;
7495;SDS011;3789;47.064;15.482;2024-01-27T04:08:30;1.30;;;1.17;;
7495;SDS011;3789;47.064;15.482;2024-01-27T04:10:57;2.87;;;1.53;;
7495;SDS011;3789;47.064;15.482;2024-01-27T04:13:25;1.40;;;1.30;;
7495;SDS011;3789;47.064;15.482;2024-01-27T04:15:52;1.93;;;1.30;;
7495;SDS011;3789;47.064;15.482;2024-01-27T04:18:20;1.47;;;1.20;;
7495;SDS011;3789;47.064;15.482;2024-01-27T04:20:48;2.27;;;1.30;;
7495;SDS011;3789;47.064;15.482;2024-01-27T04:23:15;1.50;;;1.40;;
7495;SDS011;3789;47.064;15.482;2024-01-27T04:25:43;2.27;;;1.90;;
7495;SDS011;3789;47.064;15.482;2024-01-27T04:28:11;4.87;;;2.33;;
7495;SDS011;3789;47.064;15.482;2024-01-27T04:30:39;5.30;;;2.30;;
7495;SDS011;3789;47.064;15.482;2024-01-27T04:33:07;5.70;;;2.40;;
7495;SDS011;3789;47.064;15.482;2024-01-27T04:35:34;4.47;;;2.00;;
7495;SDS011;3789;47.064;15.482;2024-01-27T04:38:02;2.57;;;1.40;;
7495;SDS011;3789;47.064;15.482;2024-01-27T04:40:30;2.50;;;1.40;;
7495;SDS011;3789;47.064;15.482;2024-01-27T04:42:57;4.67;;;2.10;;
7495;SDS011;3789;47.064;15.482;2024-01-27T04:45:25;1.37;;;1.27;;
7495;SDS011;3789;47.064;15.482;2024-01-27T04:47:53;3.33;;;1.77;;
7495;SDS011;3789;47.064;15.482;2024-01-27T04:50:21;1.60;;;1.40;;
7495;SDS011;3789;47.064;15.482;2024-01-27T04:52:49;3.50;;;2.17;;
7495;SDS011;3789;47.064;15.482;2024-01-27T04:55:16;3.40;;;2.17;;
7495;SDS011;3789;47.064;15.482;2024-01-27T04:57:44;2.57;;;1.70;;
7495;SDS011;3789;47.064;15.482;2024-01-27T05:00:11;6.53;;;2.03;;
7495;SDS011;3789;47.064;15.482;2024-01-27T05:02:40;4.73;;;1.47;;
7495;SDS011;3789;47.064;15.482;2024-01-27T05:05:08;3.93;;;1.77;;
7495;SDS011;3789;47.064;15.482;2024-01-27T05:07:36;2.17;;;1.50;;
7495;SDS011;3789;47.064;15.482;2024-01-27T05:10:03;2.23;;;1.73;;
7495;SDS011;3789;47.064;15.482;2024-01-27T05:12:31;6.37;;;2.03;;
7495;SDS011;3789;47.064;15.482;2024-01-27T05:14:59;2.77;;;1.57;;
7495;SDS011;3789;47.064;15.482;2024-01-27T05:17:26;2.80;;;1.47;;
7495;SDS011;3789;47.064;15.482;2024-01-27T05:19:54;3.47;;;1.70;;
7495;SDS011;3789;47.064;15.482;2024-01-27T05:22:21;2.83;;;2.10;;
7495;SDS011;3789;47.064;15.482;2024-01-27T05:24:48;3.20;;;2.73;;
7495;SDS011;3789;47.064;15.482;2024-01-27T05:27:15;10.83;;;5.13;;
7495;SDS011;3789;47.064;15.482;2024-01-27T05:29:43;7.77;;;2.97;;
7495;SDS011;3789;47.064;15.482;2024-01-27T05:32:10;4.27;;;2.50;;
7495;SDS011;3789;47.064;15.482;2024-01-27T05:34:38;2.33;;;1.47;;
7495;SDS011;3789;47.064;15.482;2024-01-27T05:37:05;6.40;;;2.20;;
7495;SDS011;3789;47.064;15.482;2024-01-27T05:39:33;1.90;;;1.30;;
7495;SDS011;3789;47.064;15.482;2024-01-27T05:42:00;4.77;;;1.70;;
7495;SDS011;3789;47.064;15.482;2024-01-27T05:44:29;1.53;;;1.33;;
7495;SDS011;3789;47.064;15.482;2024-01-27T05:46:56;5.27;;;2.30;;
7495;SDS011;3789;47.064;15.482;2024-01-27T05:49:24;4.57;;;2.20;;
7495;SDS011;3789;47.064;15.482;2024-01-27T05:51:51;4.77;;;2.67;;
7495;SDS011;3789;47.064;15.482;2024-01-27T05:54:19;2.20;;;1.40;;
7495;SDS011;3789;47.064;15.482;2024-01-27T05:56:46;7.80;;;2.50;;
7495;SDS011;3789;47.064;15.482;2024-01-27T05:59:14;2.37;;;1.67;;
7495;SDS011;3789;47.064;15.482;2024-01-27T06:01:41;1.93;;;1.30;;
7495;SDS011;3789;47.064;15.482;2024-01-27T06:04:11;1.30;;;1.20;;
7495;SDS011;3789;47.064;15.482;2024-01-27T06:06:41;2.07;;;1.10;;
7495;SDS011;3789;47.064;15.482;2024-01-27T06:09:09;2.13;;;1.50;;
7495;SDS011;3789;47.064;15.482;2024-01-27T06:11:38;2.90;;;1.50;;
7495;SDS011;3789;47.064;15.482;2024-01-27T06:14:05;7.50;;;2.67;;
7495;SDS011;3789;47.064;15.482;2024-01-27T06:16:33;1.57;;;1.43;;
7495;SDS011;3789;47.064;15.482;2024-01-27T06:19:02;1.33;;;1.13;;
7495;SDS011;3789;47.064;15.482;2024-01-27T06:21:30;1.73;;;1.63;;
7495;SDS011;3789;47.064;15.482;2024-01-27T06:23:57;1.53;;;1.30;;
7495;SDS011;3789;47.064;15.482;2024-01-27T06:26:25;1.50;;;1.10;;
7495;SDS011;3789;47.064;15.482;2024-01-27T06:28:52;2.33;;;1.30;;
7495;SDS011;3789;47.064;15.482;2024-01-27T06:31:19;2.13;;;1.30;;
7495;SDS011;3789;47.064;15.482;2024-01-27T06:33:47;2.43;;;1.20;;
7495;SDS011;3789;47.064;15.482;2024-01-27T06:36:15;1.70;;;1.33;;
7495;SDS011;3789;47.064;15.482;2024-01-27T06:38:43;2.07;;;1.10;;
7495;SDS011;3789;47.064;15.482;2024-01-27T06:41:10;1.40;;;1.30;;
7495;SDS011;3789;47.064;15.482;2024-01-27T06:43:38;2.63;;;1.20;;
7495;SDS011;3789;47.064;15.482;2024-01-27T06:46:05;1.47;;;1.20;;
7495;SDS011;3789;47.064;15.482;2024-01-27T06:48:33;2.70;;;1.43;;
7495;SDS011;3789;47.064;15.482;2024-01-27T06:51:00;1.77;;;1.40;;
7495;SDS011;3789;47.064;15.482;2024-01-27T06:53:28;1.37;;;1.20;;
7495;SDS011;3789;47.064;15.482;2024-01-27T06:55:55;1.73;;;1.53;;
7495;SDS011;3789;47.064;15.482;2024-01-27T06:58:23;1.50;;;1.20;;
7495;SDS011;3789;47.064;15.482;2024-01-27T07:00:50;2.37;;;1.20;;
7495;SDS011;3789;47.064;15.482;2024-01-27T07:03:17;2.43;;;1.20;;
7495;SDS011;3789;47.064;15.482;2024-01-27T07:05:45;1.10;;;1.07;;
7495;SDS011;3789;47.064;15.482;2024-01-27T07:08:13;1.53;;;1.20;;
7495;SDS011;3789;47.064;15.482;2024-01-27T07:10:40;1.40;;;1.10;;
7495;SDS011;3789;47.064;15.482;2024-01-27T07:13:08;1.33;;;1.23;;
7495;SDS011;3789;47.064;15.482;2024-01-27T07:15:36;1.30;;;1.20;;
7495;SDS011;3789;47.064;15.482;2024-01-27T07:18:04;2.37;;;1.40;;
7495;SDS011;3789;47.064;15.482;2024-01-27T07:20:32;3.23;;;1.10;;
7495;SDS011;3789;47.064;15.482;2024-01-27T07:22:59;1.33;;;1.23;;
7495;SDS011;3789;47.064;15.482;2024-01-27T07:25:26;2.17;;;1.30;;
7495;SDS011;3789;47.064;15.482;2024-01-27T07:27:54;2.10;;;1.30;;
7495;SDS011;3789;47.064;15.482;2024-01-27T07:30:22;1.43;;;1.07;;
7495;SDS011;3789;47.064;15.482;2024-01-27T07:32:49;3.57;;;1.20;;
7495;SDS011;3789;47.064;15.482;2024-01-27T07:35:17;1.70;;;1.20;;
7495;SDS011;3789;47.064;15.482;2024-01-27T07:37:44;1.40;;;1.30;;
7495;SDS011;3789;47.064;15.482;2024-01-27T07:40:12;2.07;;;1.60;;
7495;SDS011;3789;47.064;15.482;2024-01-27T07:42:39;2.73;;;1.80;;
7495;SDS011;3789;47.064;15.482;2024-01-27T07:45:08;3.50;;;2.00;;
7495;SDS011;3789;47.064;15.482;2024-01-27T07:47:35;1.90;;;1.70;;
7495;SDS011;3789;47.064;15.482;2024-01-27T07:50:03;2.87;;;1.60;;
7495;SDS011;3789;47.064;15.482;2024-01-27T07:52:31;2.40;;;1.90;;
7495;SDS011;3789;47.064;15.482;2024-01-27T07:54:58;2.90;;;2.23;;
7495;SDS011;3789;47.064;15.482;2024-01-27T07:57:27;3.60;;;2.20;;
7495;SDS011;3789;47.064;15.482;2024-01-27T07:59:54;2.73;;;2.43;;
7495;SDS011;3789;47.064;15.482;2024-01-27T08:02:22;2.77;;;2.40;;
7495;SDS011;3789;47.064;15.482;2024-01-27T08:04:50;2.83;;;2.00;;
7495;SDS011;3789;47.064;15.482;2024-01-27T08:07:17;3.43;;;1.53;;
7495;SDS011;3789;47.064;15.482;2024-01-27T08:09:45;2.30;;;1.63;;
7495;SDS011;3789;47.064;15.482;2024-01-27T08:12:13;2.10;;;1.27;;
7495;SDS011;3789;47.064;15.482;2024-01-27T08:14:41;4.03;;;1.50;;
7495;SDS011;3789;47.064;15.482;2024-01-27T08:17:08;2.80;;;1.63;;
7495;SDS011;3789;47.064;15.482;2024-01-27T08:19:36;2.53;;;1.30;;
7495;SDS011;3789;47.064;15.482;2024-01-27T08:22:04;1.90;;;1.30;;
7495;SDS011;3789;47.064;15.482;2024-01-27T08:24:31;2.03;;;1.37;;
7495;SDS011;3789;47.064;15.482;2024-01-27T08:26:58;1.27;;;1.07;;
7495;SDS011;3789;47.064;15.482;2024-01-27T08:29:27;2.10;;;1.63;;
7495;SDS011;3789;47.064;15.482;2024-01-27T08:31:54;2.80;;;1.50;;
7495;SDS011;3789;47.064;15.482;2024-01-27T08:34:22;1.90;;;1.30;;
7495;SDS011;3789;47.064;15.482;2024-01-27T08:36:49;1.20;;;1.10;;
7495;SDS011;3789;47.064;15.482;2024-01-27T08:39:18;2.03;;;1.40;;
7495;SDS011;3789;47.064;15.482;2024-01-27T08:41:45;1.50;;;1.40;;
7495;SDS011;3789;47.064;15.482;2024-01-27T08:44:12;1.23;;;1.10;;
7495;SDS011;3789;47.064;15.482;2024-01-27T08:46:40;3.70;;;1.37;;
7495;SDS011;3789;47.064;15.482;2024-01-27T08:49:07;1.33;;;1.00;;
7495;SDS011;3789;47.064;15.482;2024-01-27T08:51:35;1.60;;;1.40;;
7495;SDS011;3789;47.064;15.482;2024-01-27T08:54:02;1.70;;;1.47;;
7495;SDS011;3789;47.064;15.482;2024-01-27T08:56:30;2.10;;;1.50;;
7495;SDS011;3789;47.064;15.482;2024-01-27T08:58:57;3.70;;;1.47;;
7495;SDS011;3789;47.064;15.482;2024-01-27T09:01:24;1.97;;;1.37;;
7495;SDS011;3789;47.064;15.482;2024-01-27T09:03:52;2.03;;;1.83;;
7495;SDS011;3789;47.064;15.482;2024-01-27T09:06:19;1.80;;;1.50;;
7495;SDS011;3789;47.064;15.482;2024-01-27T09:08:46;2.20;;;1.60;;
7495;SDS011;3789;47.064;15.482;2024-01-27T09:11:14;2.87;;;1.77;;
7495;SDS011;3789;47.064;15.482;2024-01-27T09:13:41;2.37;;;1.60;;
7495;SDS011;3789;47.064;15.482;2024-01-27T09:16:11;3.20;;;1.80;;
7495;SDS011;3789;47.064;15.482;2024-01-27T09:18:40;4.10;;;1.93;;
7495;SDS011;3789;47.064;15.482;2024-01-27T09:21:07;2.20;;;1.40;;
7495;SDS011;3789;47.064;15.482;2024-01-27T09:23:35;2.60;;;1.20;;
7495;SDS011;3789;47.064;15.482;2024-01-27T09:26:03;2.33;;;1.30;;
7495;SDS011;3789;47.064;15.482;2024-01-27T09:28:31;1.57;;;1.20;;
7495;SDS011;3789;47.064;15.482;2024-01-27T09:30:59;1.00;;;1.00;;
7495;SDS011;3789;47.064;15.482;2024-01-27T09:33:26;1.43;;;1.27;;
7495;SDS011;3789;47.064;15.482;2024-01-27T09:35:54;1.10;;;0.90;;
7495;SDS011;3789;47.064;15.482;2024-01-27T09:38:21;1.17;;;1.07;;
7495;SDS011;3789;47.064;15.482;2024-01-27T09:40:49;1.97;;;1.20;;
7495;SDS011;3789;47.064;15.482;2024-01-27T09:43:20;1.10;;;1.00;;
7495;SDS011;3789;47.064;15.482;2024-01-27T09:45:48;1.00;;;1.00;;
7495;SDS011;3789;47.064;15.482;2024-01-27T09:48:23;2.27;;;1.10;;
7495;SDS011;3789;47.064;15.482;2024-01-27T09:50:53;1.53;;;1.10;;
7495;SDS011;3789;47.064;15.482;2024-01-27T09:53:29;2.87;;;1.37;;
7495;SDS011;3789;47.064;15.482;2024-01-27T09:56:00;1.03;;;1.00;;
7495;SDS011;3789;47.064;15.482;2024-01-27T09:58:32;2.73;;;1.50;;
7495;SDS011;3789;47.064;15.482;2024-01-27T10:01:09;3.13;;;1.43;;
7495;SDS011;3789;47.064;15.482;2024-01-27T10:03:40;1.37;;;1.20;;
7495;SDS011;3789;47.064;15.482;2024-01-27T10:06:10;2.10;;;1.30;;
7495;SDS011;3789;47.064;15.482;2024-01-27T10:08:38;1.83;;;1.27;;
7495;SDS011;3789;47.064;15.482;2024-01-27T10:11:07;2.30;;;1.00;;
7495;SDS011;3789;47.064;15.482;2024-01-27T10:13:36;1.97;;;1.20;;
7495;SDS011;3789;47.064;15.482;2024-01-27T10:16:04;3.13;;;1.03;;
7495;SDS011;3789;47.064;15.482;2024-01-27T10:18:36;1.20;;;1.07;;
7495;SDS011;3789;47.064;15.482;2024-01-27T10:21:13;3.03;;;1.40;;
7495;SDS011;3789;47.064;15.482;2024-01-27T10:23:42;1.80;;;1.00;;
7495;SDS011;3789;47.064;15.482;2024-01-27T10:26:09;1.23;;;1.00;;
7495;SDS011;3789;47.064;15.482;2024-01-27T10:28:37;1.50;;;1.00;;
7495;SDS011;3789;47.064;15.482;2024-01-27T10:31:08;1.73;;;1.20;;
7495;SDS011;3789;47.064;15.482;2024-01-27T10:33:36;2.50;;;1.17;;
7495;SDS011;3789;47.064;15.482;2024-01-27T10:36:05;0.90;;;0.90;;
7495;SDS011;3789;47.064;15.482;2024-01-27T10:38:39;0.90;;;0.90;;
7495;SDS011;3789;47.064;15.482;2024-01-27T10:41:09;1.20;;;1.10;;
7495;SDS011;3789;47.064;15.482;2024-01-27T10:43:38;1.93;;;1.10;;
7495;SDS011;3789;47.064;15.482;2024-01-27T10:46:06;1.03;;;1.00;;
7495;SDS011;3789;47.064;15.482;2024-01-27T10:48:34;0.90;;;0.90;;
7495;SDS011;3789;47.064;15.482;2024-01-27T10:51:09;1.67;;;1.03;;
7495;SDS011;3789;47.064;15.482;2024-01-27T10:53:37;1.10;;;1.00;;
7495;SDS011;3789;47.064;15.482;2024-01-27T10:56:06;1.20;;;1.10;;
7495;SDS011;3789;47.064;15.482;2024-01-27T10:58:36;3.80;;;2.23;;
7495;SDS011;3789;47.064;15.482;2024-01-27T11:01:09;1.40;;;1.30;;
7495;SDS011;3789;47.064;15.482;2024-01-27T11:03:41;1.27;;;1.10;;
7495;SDS011;3789;47.064;15.482;2024-01-27T11:06:10;1.57;;;1.00;;
7495;SDS011;3789;47.064;15.482;2024-01-27T11:08:39;1.90;;;1.27;;
7495;SDS011;3789;47.064;15.482;2024-01-27T11:11:10;1.10;;;1.00;;
7495;SDS011;3789;47.064;15.482;2024-01-27T11:13:38;1.13;;;1.00;;
7495;SDS011;3789;47.064;15.482;2024-01-27T11:16:14;1.23;;;1.13;;
7495;SDS011;3789;47.064;15.482;2024-01-27T11:18:44;1.27;;;1.00;;
7495;SDS011;3789;47.064;15.482;2024-01-27T11:21:15;1.70;;;0.90;;
7495;SDS011;3789;47.064;15.482;2024-01-27T11:23:44;1.00;;;0.90;;
7495;SDS011;3789;47.064;15.482;2024-01-27T11:26:18;0.80;;;0.80;;
7495;SDS011;3789;47.064;15.482;2024-01-27T11:28:50;1.10;;;1.00;;
7495;SDS011;3789;47.064;15.482;2024-01-27T11:31:18;1.07;;;1.00;;
7495;SDS011;3789;47.064;15.482;2024-01-27T11:33:47;1.43;;;1.10;;
7495;SDS011;3789;47.064;15.482;2024-01-27T11:36:23;2.10;;;1.03;;
7495;SDS011;3789;47.064;15.482;2024-01-27T11:38:52;0.80;;;0.80;;
7495;SDS011;3789;47.064;15.482;2024-01-27T11:41:27;2.67;;;0.90;;
7495;SDS011;3789;47.064;15.482;2024-01-27T11:43:56;0.90;;;0.90;;
7495;SDS011;3789;47.064;15.482;2024-01-27T11:46:28;1.40;;;0.90;;
7495;SDS011;3789;47.064;15.482;2024-01-27T11:48:56;2.27;;;1.10;;
7495;SDS011;3789;47.064;15.482;2024-01-27T11:51:24;1.07;;;0.97;;
7495;SDS011;3789;47.064;15.482;2024-01-27T11:53:51;2.37;;;0.97;;
7495;SDS011;3789;47.064;15.482;2024-01-27T11:56:19;1.07;;;0.97;;
7495;SDS011;3789;47.064;15.482;2024-01-27T11:58:48;2.27;;;1.10;;
7495;SDS011;3789;47.064;15.482;2024-01-27T12:01:16;0.80;;;0.80;;
7495;SDS011;3789;47.064;15.482;2024-01-27T12:03:44;1.53;;;1.00;;
7495;SDS011;3789;47.064;15.482;2024-01-27T12:06:12;1.97;;;1.10;;
7495;SDS011;3789;47.064;15.482;2024-01-27T12:08:57;1.17;;;0.90;;
7495;SDS011;3789;47.064;15.482;2024-01-27T12:11:25;0.90;;;0.90;;
7495;SDS011;3789;47.064;15.482;2024-01-27T12:13:53;1.67;;;1.00;;
7495;SDS011;3789;47.064;15.482;2024-01-27T12:16:21;1.10;;;1.00;;
7495;SDS011;3789;47.064;15.482;2024-01-27T12:18:53;0.90;;;0.90;;
7495;SDS011;3789;47.064;15.482;2024-01-27T12:21:23;1.40;;;0.97;;
7495;SDS011;3789;47.064;15.482;2024-01-27T12:23:55;1.43;;;1.10;;
7495;SDS011;3789;47.064;15.482;2024-01-27T12:26:30;2.30;;;1.10;;
7495;SDS011;3789;47.064;15.482;2024-01-27T12:28:59;1.50;;;1.40;;
7495;SDS011;3789;47.064;15.482;2024-01-27T12:31:27;3.67;;;1.10;;
7495;SDS011;3789;47.064;15.482;2024-01-27T12:33:55;2.20;;;1.10;;
7495;SDS011;3789;47.064;15.482;2024-01-27T12:36:26;0.87;;;0.87;;
7495;SDS011;3789;47.064;15.482;2024-01-27T12:41:28;1.10;;;1.00;;
7495;SDS011;3789;47.064;15.482;2024-01-27T12:44:01;0.80;;;0.80;;
7495;SDS011;3789;47.064;15.482;2024-01-27T12:46:29;4.67;;;0.90;;
7495;SDS011;3789;47.064;15.482;2024-01-27T12:48:58;0.77;;;0.70;;
7495;SDS011;3789;47.064;15.482;2024-01-27T12:51:25;0.90;;;0.90;;
7495;SDS011;3789;47.064;15.482;2024-01-27T12:53:52;2.23;;;1.00;;
7495;SDS011;3789;47.064;15.482;2024-01-27T12:56:20;0.93;;;0.90;;
7495;SDS011;3789;47.064;15.482;2024-01-27T12:58:47;0.80;;;0.80;;
7495;SDS011;3789;47.064;15.482;2024-01-27T13:01:15;0.80;;;0.80;;
7495;SDS011;3789;47.064;15.482;2024-01-27T13:03:42;0.70;;;0.70;;
7495;SDS011;3789;47.064;15.482;2024-01-27T13:06:11;1.20;;;1.10;;
7495;SDS011;3789;47.064;15.482;2024-01-27T13:08:40;1.00;;;0.90;;
7495;SDS011;3789;47.064;15.482;2024-01-27T13:11:08;1.00;;;0.90;;
7495;SDS011;3789;47.064;15.482;2024-01-27T13:13:36;1.17;;;1.00;;
7495;SDS011;3789;47.064;15.482;2024-01-27T13:16:03;2.63;;;1.33;;
7495;SDS011;3789;47.064;15.482;2024-01-27T13:18:31;0.73;;;0.73;;
7495;SDS011;3789;47.064;15.482;2024-01-27T13:20:59;2.70;;;1.10;;
7495;SDS011;3789;47.064;15.482;2024-01-27T13:23:26;0.90;;;0.90;;
7495;SDS011;3789;47.064;15.482;2024-01-27T13:25:54;1.23;;;0.90;;
7495;SDS011;3789;47.064;15.482;2024-01-27T13:28:41;0.80;;;0.80;;
7495;SDS011;3789;47.064;15.482;2024-01-27T13:31:09;1.40;;;0.90;;
7495;SDS011;3789;47.064;15.482;2024-01-27T13:33:37;1.07;;;0.97;;
7495;SDS011;3789;47.064;15.482;2024-01-27T13:36:05;0.80;;;0.80;;
7495;SDS011;3789;47.064;15.482;2024-01-27T13:38:33;1.00;;;0.80;;
7495;SDS011;3789;47.064;15.482;2024-01-27T13:41:02;1.00;;;0.90;;
7495;SDS011;3789;47.064;15.482;2024-01-27T13:43:29;0.70;;;0.70;;
7495;SDS011;3789;47.064;15.482;2024-01-27T13:45:58;1.23;;;0.90;;
7495;SDS011;3789;47.064;15.482;2024-01-27T13:48:25;1.30;;;1.10;;
7495;SDS011;3789;47.064;15.482;2024-01-27T13:50:52;2.27;;;0.90;;
7495;SDS011;3789;47.064;15.482;2024-01-27T13:53:20;0.90;;;0.90;;
7495;SDS011;3789;47.064;15.482;2024-01-27T13:55:48;2.23;;;1.10;;
7495;SDS011;3789;47.064;15.482;2024-01-27T13:58:17;2.67;;;1.00;;
7495;SDS011;3789;47.064;15.482;2024-01-27T14:00:45;0.70;;;0.70;;
7495;SDS011;3789;47.064;15.482;2024-01-27T14:03:12;1.20;;;1.10;;
7495;SDS011;3789;47.064;15.482;2024-01-27T14:05:40;1.03;;;1.00;;
7495;SDS011;3789;47.064;15.482;2024-01-27T14:08:09;1.30;;;1.00;;
7495;SDS011;3789;47.064;15.482;2024-01-27T14:10:36;1.53;;;0.83;;
7495;SDS011;3789;47.064;15.482;2024-01-27T14:13:05;0.83;;;0.83;;
7495;SDS011;3789;47.064;15.482;2024-01-27T14:15:36;0.83;;;0.83;;
7495;SDS011;3789;47.064;15.482;2024-01-27T14:18:04;1.70;;;1.10;;
7495;SDS011;3789;47.064;15.482;2024-01-27T14:20:36;1.33;;;0.87;;
7495;SDS011;3789;47.064;15.482;2024-01-27T14:23:04;1.37;;;0.90;;
7495;SDS011;3789;47.064;15.482;2024-01-27T14:25:31;0.90;;;0.90;;
7495;SDS011;3789;47.064;15.482;2024-01-27T14:27:59;0.97;;;0.97;;
7495;SDS011;3789;47.064;15.482;2024-01-27T14:30:26;1.17;;;0.80;;
7495;SDS011;3789;47.064;15.482;2024-01-27T14:32:53;2.70;;;1.23;;
7495;SDS011;3789;47.064;15.482;2024-01-27T14:35:21;0.87;;;0.80;;
7495;SDS011;3789;47.064;15.482;2024-01-27T14:37:48;1.73;;;1.00;;
7495;SDS011;3789;47.064;15.482;2024-01-27T14:40:15;1.80;;;1.00;;
7495;SDS011;3789;47.064;15.482;2024-01-27T14:42:45;2.23;;;1.37;;
7495;SDS011;3789;47.064;15.482;2024-01-27T14:45:13;1.77;;;1.67;;
7495;SDS011;3789;47.064;15.482;2024-01-27T14:47:41;0.80;;;0.80;;
7495;SDS011;3789;47.064;15.482;2024-01-27T14:50:08;1.10;;;0.90;;
7495;SDS011;3789;47.064;15.482;2024-01-27T14:52:36;1.23;;;0.90;;
7495;SDS011;3789;47.064;15.482;2024-01-27T14:55:04;0.97;;;0.93;;
7495;SDS011;3789;47.064;15.482;2024-01-27T14:57:31;2.60;;;1.23;;
7495;SDS011;3789;47.064;15.482;2024-01-27T14:59:58;1.00;;;1.00;;
7495;SDS011;3789;47.064;15.482;2024-01-27T15:02:28;1.07;;;1.00;;
7495;SDS011;3789;47.064;15.482;2024-01-27T15:04:56;1.87;;;1.13;;
7495;SDS011;3789;47.064;15.482;2024-01-27T15:07:23;1.53;;;1.10;;
7495;SDS011;3789;47.064;15.482;2024-01-27T15:09:56;0.90;;;0.90;;
7495;SDS011;3789;47.064;15.482;2024-01-27T15:12:23;3.53;;;2.13;;